Flight Track Log - Related Links

Times and Time Zones

All times are in EDT time to prevent confusion due to time zone crossing. See the CTL14 flight status page for this flight to view local times or setup timezone preferences in your user account.

Time Position Orientation Groundspeed Altitude Reporting Facility
EDT Latitude Longitude Course Direction KTS MPH feet Rate Location/Type
Thu 11:02:18 PM 40.5475 -88.9261 North 107 123 3,600  Level Chicago Center
Thu 11:03:20 PM 40.5814 -88.9047 26° Northeast 137 158 4,300 829 Climbing Chicago Center
Thu 11:04:21 PM 40.6158 -88.8922 15° North 131 151 5,300 738 Climbing Chicago Center
Thu 11:05:22 PM 40.6500 -88.8808 14° North 128 147 5,800 537 Climbing Chicago Center
Thu 11:06:24 PM 40.6906 -88.8706 11° North 141 162 6,400 585 Climbing Chicago Center
Thu 11:07:25 PM 40.7417 -88.8575 11° North 153 176 7,000 344 Climbing Chicago Center
Thu 11:08:26 PM 40.7922 -88.8444 11° North 176 203 7,100 49 Climbing Chicago Center
Thu 11:09:28 PM 40.8433 -88.8319 10° North 197 227 7,100  Level Chicago Center
Thu 11:10:29 PM 40.9022 -88.8142 13° North 212 244 7,100  Level Chicago Center
Thu 11:11:31 PM 40.9725 -88.7967 11° North 213 245 7,100  Level Chicago Center
Thu 11:12:32 PM 41.0311 -88.7797 12° North 215 247 7,100  Level Chicago Center
Thu 11:13:33 PM 41.0878 -88.7628 13° North 211 243 7,100 -146 Level Chicago Center
Thu 11:14:35 PM 41.1461 -88.7456 13° North 214 246 6,800 -390 Descending Chicago Center
Thu 11:15:36 PM 41.2106 -88.7256 13° North 229 264 6,300 -443 Descending Chicago Center
Thu 11:16:37 PM 41.2731 -88.7081 12° North 231 266 5,900 -195 Descending Chicago Center
Thu 11:17:39 PM 41.3322 -88.6914 12° North 222 255 5,900  Level Chicago Center
Thu 11:18:40 PM 41.3903 -88.6736 13° North 216 249 5,900 49 Level Chicago Center
Thu 11:19:41 PM 41.4603 -88.6556 11° North 214 246 6,000  Climbing Chicago Center
Thu 11:20:43 PM 41.5172 -88.6286 20° North 220 253 5,900 -49 Descending Chicago Center
Thu 11:21:44 PM 41.5731 -88.5978 22° Northeast 218 251 5,900  Level Chicago Center
Thu 11:22:45 PM 41.6294 -88.5656 23° Northeast 219 252 5,900 -49 Level Chicago Center
Thu 11:23:47 PM 41.6864 -88.5369 21° North 218 251 5,800 -341 Descending Chicago Center
Thu 11:24:48 PM 41.7456 -88.5036 23° Northeast 227 261 5,200 -590 Descending Chicago Center
Thu 11:25:49 PM 41.8047 -88.4747 20° North 227 261 4,600 -634 Descending Chicago Center
Thu 11:26:51 PM 41.8611 -88.4456 21° North 224 258 3,900 -341 Descending Chicago Center
Thu 11:27:52 PM 41.9131 -88.4169 22° Northeast 214 246 3,900  Level Chicago Center
Thu 11:28:53 PM 41.9603 -88.3875 25° Northeast 201 231 3,900 49 Level Chicago Center
Thu 11:29:54 PM 42.0214 -88.3586 19° North 196 226 4,000  Climbing Chicago Center
Thu 11:30:56 PM 42.0681 -88.3164 34° Northeast 199 229 3,900 -390 Descending Chicago Center
Thu 11:31:57 PM 42.1172 -88.2686 36° Northeast 209 241 3,200 -639 Descending Chicago Center
Thu 11:32:58 PM 42.1686 -88.2183 36° Northeast 213 245 2,600 -590 Descending Chicago Center

Login

Don't have an account? Register now (free) for customized features, flight alerts, and more!